Time;durP1;ratioP1;P1;durP2;ratioP2;P2;SDS_P1;SDS_P2;PMS_P1;PMS_P2;Temp;Humidity;BMP_temperature;BMP_pressure;BME280_temperature;BME280_humidity;BME280_pressure;Samples;Min_cycle;Max_cycle;Signal;HPM_P1;HPM_P2
2022/01/09 00:07:10;;;;;;;15.05;12.13;;;4.60;99.90;;;;;;6323788;22;20027;-96
2022/01/09 00:12:11;;;;;;;15.57;12.35;;;4.60;99.90;;;;;;6256071;22;20013;-96
2022/01/09 01:26:01;;;;;;;20.00;17.00;;;4.70;99.90;;;;;;6179727;23;20056;-97
2022/01/09 01:28:29;;;;;;;19.83;16.77;;;4.70;99.90;;;;;;6108144;23;20024;-96
2022/01/09 01:30:57;;;;;;;20.27;18.08;;;4.70;99.90;;;;;;6127827;23;20044;-96
2022/01/09 01:33:23;;;;;;;20.50;18.30;;;4.70;99.90;;;;;;6130769;23;20014;-96
2022/01/09 01:35:50;;;;;;;22.70;18.48;;;4.80;99.90;;;;;;6156091;23;19997;-96
2022/01/09 01:38:17;;;;;;;21.30;18.70;;;4.80;99.90;;;;;;6130333;23;20287;-96
2022/01/09 01:40:43;;;;;;;20.50;17.88;;;4.80;99.90;;;;;;6090518;23;20015;-96
2022/01/09 01:43:09;;;;;;;22.13;19.30;;;4.80;99.90;;;;;;6067862;23;20006;-96
2022/01/09 01:45:35;;;;;;;22.95;20.23;;;4.80;99.90;;;;;;6202786;22;20015;-96
2022/01/09 01:48:10;;;;;;;20.73;18.13;;;4.80;99.90;;;;;;6272058;22;20047;-96
2022/01/09 01:50:38;;;;;;;21.90;17.08;;;4.80;99.90;;;;;;6246591;22;20008;-96
2022/01/09 01:53:12;;;;;;;21.63;17.33;;;4.80;99.90;;;;;;6246578;23;20056;-96
2022/01/09 01:55:40;;;;;;;24.27;19.05;;;4.90;99.90;;;;;;6246334;23;20016;-96
2022/01/09 02:00:45;;;;;;;23.02;18.42;;;4.90;99.90;;;;;;6328086;22;20027;-96
2022/01/09 02:03:10;;;;;;;23.10;18.77;;;4.90;99.90;;;;;;6282114;22;20049;-96
2022/01/09 02:05:37;;;;;;;22.40;18.02;;;4.90;99.90;;;;;;6281301;22;20003;-96
2022/01/09 02:10:48;;;;;;;21.67;17.08;;;4.90;99.90;;;;;;6328904;22;20079;-96
2022/01/09 02:44:20;;;;;;;19.95;14.10;;;5.10;99.90;;;;;;6269207;22;20019;-96
2022/01/09 03:07:29;;;;;;;19.25;11.55;;;5.40;99.90;;;;;;6227701;22;20063;-96
2022/01/09 03:09:55;;;;;;;20.27;12.40;;;5.50;99.90;;;;;;6155045;22;20020;-96
2022/01/09 03:12:24;;;;;;;18.75;10.70;;;5.50;99.90;;;;;;6189877;22;20019;-96
2022/01/09 03:14:50;;;;;;;20.52;9.63;;;5.60;99.90;;;;;;6173306;22;20016;-96
2022/01/09 03:17:16;;;;;;;17.05;7.78;;;5.70;99.90;;;;;;6175185;22;20019;-96
2022/01/09 03:22:30;;;;;;;19.63;6.50;;;5.80;99.90;;;;;;6277927;22;20023;-96
2022/01/09 03:24:56;;;;;;;21.50;6.35;;;5.90;99.90;;;;;;6296585;22;20039;-96
2022/01/09 03:30:13;;;;;;;18.40;4.53;;;5.90;99.90;;;;;;6181433;22;20005;-96
2022/01/09 03:32:40;;;;;;;23.25;5.90;;;6.00;99.90;;;;;;6231740;22;20039;-96
2022/01/09 03:35:09;;;;;;;23.48;5.57;;;6.00;99.90;;;;;;6258512;22;20330;-95
2022/01/09 03:37:35;;;;;;;23.77;5.68;;;6.10;99.90;;;;;;6254098;22;20020;-96
2022/01/09 03:40:03;;;;;;;25.40;6.15;;;6.20;99.90;;;;;;6255087;22;20019;-96
2022/01/09 03:42:30;;;;;;;27.48;6.60;;;6.30;99.90;;;;;;6237991;22;20518;-96
2022/01/09 03:44:56;;;;;;;30.08;6.90;;;6.30;99.90;;;;;;6254040;22;20099;-96
2022/01/09 03:47:21;;;;;;;25.27;5.85;;;6.30;99.90;;;;;;6248850;22;20075;-93
2022/01/09 03:49:47;;;;;;;30.08;6.63;;;6.40;99.90;;;;;;6224209;22;20031;-96
2022/01/09 03:52:14;;;;;;;29.02;6.13;;;6.50;99.90;;;;;;6250133;22;20019;-96
2022/01/09 03:54:39;;;;;;;32.60;6.32;;;6.60;99.90;;;;;;6233623;22;20019;-96
2022/01/09 03:57:05;;;;;;;28.23;6.57;;;6.50;99.90;;;;;;6225162;22;20068;-91
2022/01/09 03:59:31;;;;;;;28.20;6.50;;;6.60;99.90;;;;;;6218519;22;20444;-95
2022/01/09 04:01:56;;;;;;;33.25;7.03;;;6.60;99.90;;;;;;6220739;22;20500;-93
2022/01/09 04:04:22;;;;;;;32.03;6.55;;;6.60;99.90;;;;;;6218459;22;20012;-96
2022/01/09 04:06:50;;;;;;;32.95;6.32;;;6.70;99.90;;;;;;6219472;22;20067;-95
2022/01/09 04:09:29;;;;;;;30.95;8.13;;;6.70;99.90;;;;;;6223446;22;20047;-94
2022/01/09 04:12:03;;;;;;;30.92;6.55;;;6.70;99.90;;;;;;6222270;22;20015;-94
2022/01/09 04:14:29;;;;;;;32.38;7.28;;;6.80;99.90;;;;;;6245801;22;20044;-95
2022/01/09 04:16:55;;;;;;;33.83;6.82;;;6.70;99.90;;;;;;6263814;22;20016;-95
2022/01/09 04:19:21;;;;;;;29.00;6.22;;;6.70;99.90;;;;;;6240763;22;20034;-96
2022/01/09 04:21:46;;;;;;;29.88;7.25;;;6.60;99.90;;;;;;6270948;22;20020;-96
2022/01/09 04:24:12;;;;;;;28.08;6.30;;;6.70;99.90;;;;;;6232178;22;20340;-95
2022/01/09 04:26:38;;;;;;;30.08;6.18;;;6.70;99.90;;;;;;6222315;22;20453;-92
2022/01/09 04:29:04;;;;;;;24.88;5.65;;;6.60;99.90;;;;;;6221281;22;20015;-92
2022/01/09 04:31:30;;;;;;;30.67;6.10;;;6.70;99.90;;;;;;6245267;22;20015;-96
2022/01/09 04:33:56;;;;;;;28.27;6.18;;;6.70;99.90;;;;;;6220031;22;20019;-96
2022/01/09 04:36:23;;;;;;;31.48;6.25;;;6.70;99.90;;;;;;6220706;22;20023;-96
2022/01/09 04:38:48;;;;;;;24.90;5.53;;;6.70;99.90;;;;;;6245562;22;20020;-92
2022/01/09 04:41:14;;;;;;;24.80;5.45;;;6.70;99.90;;;;;;6245397;22;20023;-92
2022/01/09 04:43:42;;;;;;;28.02;6.20;;;6.70;99.90;;;;;;6245815;22;20024;-94
2022/01/09 04:46:09;;;;;;;29.33;6.72;;;6.60;99.90;;;;;;6220611;22;20108;-95
2022/01/09 04:48:34;;;;;;;24.05;5.75;;;6.70;99.90;;;;;;6221326;22;20020;-95
2022/01/09 04:51:00;;;;;;;25.73;5.95;;;6.60;99.90;;;;;;6220288;22;20078;-94
2022/01/09 04:53:25;;;;;;;25.88;5.15;;;6.70;99.90;;;;;;6220925;22;20019;-92
2022/01/09 04:55:51;;;;;;;25.50;5.65;;;6.60;99.90;;;;;;6245910;22;20012;-95
2022/01/09 04:58:19;;;;;;;23.20;4.70;;;6.60;99.90;;;;;;6246967;22;20094;-95
2022/01/09 05:00:45;;;;;;;23.30;5.20;;;6.60;99.90;;;;;;6244564;22;20351;-95
2022/01/09 05:03:12;;;;;;;27.33;5.15;;;6.60;99.90;;;;;;6218991;22;20095;-94
2022/01/09 05:05:38;;;;;;;22.83;4.80;;;6.60;99.90;;;;;;6245784;22;20019;-95
2022/01/09 05:08:04;;;;;;;26.85;5.05;;;6.60;99.90;;;;;;6246804;22;20072;-95
2022/01/09 05:10:29;;;;;;;24.95;4.72;;;6.60;99.90;;;;;;6222037;22;20012;-95
2022/01/09 05:12:55;;;;;;;20.75;4.72;;;6.60;99.90;;;;;;6246177;22;20019;-95
2022/01/09 05:15:22;;;;;;;23.35;5.03;;;6.60;99.90;;;;;;6245507;22;20459;-94
2022/01/09 05:17:50;;;;;;;22.50;4.63;;;6.60;99.90;;;;;;6245533;22;20337;-93
2022/01/09 05:20:16;;;;;;;23.85;4.63;;;6.60;99.90;;;;;;6245352;22;20386;-94
2022/01/09 05:22:42;;;;;;;26.63;4.55;;;6.60;99.90;;;;;;6219915;22;20011;-91
2022/01/09 05:25:08;;;;;;;19.98;4.45;;;6.60;99.90;;;;;;6220908;22;20026;-96
2022/01/09 05:27:35;;;;;;;22.77;4.25;;;6.60;99.90;;;;;;6244571;22;20019;-94
2022/01/09 05:30:02;;;;;;;23.02;4.47;;;6.60;99.90;;;;;;6219806;22;20058;-96
2022/01/09 05:32:28;;;;;;;21.08;4.25;;;6.50;99.90;;;;;;6221122;22;20448;-93
2022/01/09 05:34:54;;;;;;;20.92;3.67;;;6.50;99.90;;;;;;6218369;22;20063;-94
2022/01/09 05:37:19;;;;;;;22.58;4.35;;;6.50;99.90;;;;;;6244185;22;20332;-94
2022/01/09 05:39:45;;;;;;;19.50;4.88;;;6.60;99.90;;;;;;6219437;22;20023;-94
2022/01/09 05:42:14;;;;;;;20.55;3.85;;;6.60;99.90;;;;;;6220274;22;20514;-94
2022/01/09 05:44:39;;;;;;;18.08;3.63;;;6.60;99.90;;;;;;6243628;22;20051;-92
2022/01/09 05:47:05;;;;;;;16.15;3.53;;;6.50;99.90;;;;;;6245289;22;20019;-92
2022/01/09 05:49:31;;;;;;;21.35;3.92;;;6.50;99.90;;;;;;6219392;22;20022;-91
2022/01/09 05:51:57;;;;;;;17.65;3.83;;;6.50;99.90;;;;;;6220376;22;20043;-96
2022/01/09 05:54:23;;;;;;;14.95;2.95;;;6.50;99.90;;;;;;6222844;22;20020;-93
2022/01/09 05:56:51;;;;;;;22.23;4.20;;;6.30;99.90;;;;;;6218964;22;20095;-94
2022/01/09 05:59:18;;;;;;;22.02;3.40;;;6.40;99.90;;;;;;6246169;22;20019;-96
2022/01/09 06:01:43;;;;;;;20.67;4.30;;;6.40;99.90;;;;;;6221163;22;20019;-96
2022/01/09 06:04:09;;;;;;;19.85;4.20;;;6.40;99.90;;;;;;6247680;22;20011;-94
2022/01/09 06:06:35;;;;;;;20.98;4.40;;;6.40;99.90;;;;;;6218053;22;20084;-95
2022/01/09 06:09:00;;;;;;;19.27;4.38;;;6.40;99.90;;;;;;6222901;22;20134;-94
2022/01/09 06:11:26;;;;;;;19.98;3.38;;;6.30;99.90;;;;;;6271014;22;20560;-96
2022/01/09 06:13:53;;;;;;;18.05;3.78;;;6.20;99.90;;;;;;6246144;22;20058;-94
2022/01/09 06:16:18;;;;;;;16.50;3.15;;;6.20;99.90;;;;;;6219423;22;20042;-94
2022/01/09 06:18:44;;;;;;;18.15;3.60;;;6.20;99.90;;;;;;6223175;22;20020;-94
2022/01/09 06:21:10;;;;;;;17.85;3.75;;;6.20;99.90;;;;;;6227384;22;20012;-94
2022/01/09 06:23:35;;;;;;;18.58;3.50;;;6.20;99.90;;;;;;6223522;22;20027;-96
2022/01/09 06:26:01;;;;;;;19.63;3.85;;;6.20;99.90;;;;;;6226786;22;20447;-95
2022/01/09 06:28:27;;;;;;;16.80;3.40;;;6.20;99.90;;;;;;6222083;22;20302;-95
2022/01/09 06:30:52;;;;;;;19.92;3.83;;;6.20;99.90;;;;;;6225949;22;20016;-94
2022/01/09 06:33:18;;;;;;;15.88;3.90;;;6.20;99.90;;;;;;6284714;22;20354;-96
2022/01/09 06:35:44;;;;;;;23.67;4.78;;;6.20;99.90;;;;;;6222136;22;20091;-94
2022/01/09 06:38:13;;;;;;;17.75;4.38;;;6.20;99.90;;;;;;6225843;22;20078;-96
2022/01/09 06:40:39;;;;;;;23.15;3.95;;;6.20;99.90;;;;;;6250399;22;20494;-96
2022/01/09 06:43:08;;;;;;;19.92;3.97;;;6.10;99.90;;;;;;6251843;22;20075;-96
2022/01/09 06:45:34;;;;;;;17.45;3.42;;;6.10;99.90;;;;;;6248642;22;20082;-96
2022/01/09 06:47:59;;;;;;;16.85;3.90;;;6.10;99.90;;;;;;6234235;22;20019;-96
2022/01/09 06:50:26;;;;;;;19.83;3.88;;;6.10;99.90;;;;;;6273541;22;19999;-95
2022/01/09 06:52:52;;;;;;;17.92;3.13;;;6.10;99.90;;;;;;6269405;22;20027;-95
2022/01/09 06:55:18;;;;;;;16.65;3.35;;;6.10;99.90;;;;;;6236309;22;20079;-95
2022/01/09 06:57:50;;;;;;;16.42;3.53;;;6.10;99.90;;;;;;6225356;22;20208;-96
2022/01/09 07:00:17;;;;;;;19.25;3.53;;;6.10;99.90;;;;;;6222568;22;20454;-95
2022/01/09 07:02:44;;;;;;;17.10;2.92;;;6.10;99.90;;;;;;6223663;22;20037;-94
2022/01/09 07:05:10;;;;;;;14.40;3.38;;;6.00;99.90;;;;;;6228650;22;20012;-93
2022/01/09 07:07:35;;;;;;;18.55;3.53;;;6.00;99.90;;;;;;6227631;22;20000;-94
2022/01/09 07:10:01;;;;;;;18.27;3.65;;;5.90;99.90;;;;;;6223086;22;20015;-95
2022/01/09 07:12:31;;;;;;;16.52;2.80;;;5.90;99.90;;;;;;6253918;22;20020;-96
2022/01/09 07:14:57;;;;;;;14.50;2.75;;;5.80;99.90;;;;;;6226988;22;20012;-96
2022/01/09 07:17:23;;;;;;;14.73;2.78;;;5.80;99.90;;;;;;6224212;22;20325;-95
2022/01/09 07:19:48;;;;;;;13.90;2.90;;;5.80;99.90;;;;;;6229911;22;20053;-96
2022/01/09 07:22:14;;;;;;;14.57;2.80;;;5.80;99.90;;;;;;6249586;22;20043;-95
2022/01/09 07:24:40;;;;;;;15.57;2.58;;;5.70;99.90;;;;;;6258991;22;20803;-96
2022/01/09 07:27:32;;;;;;;12.98;2.47;;;5.70;99.90;;;;;;6198179;23;20020;-96
2022/01/09 07:29:58;;;;;;;12.95;2.28;;;5.70;99.90;;;;;;6228087;22;20027;-96
2022/01/09 07:35:03;;;;;;;17.52;3.08;;;5.70;99.90;;;;;;6247587;22;20020;-96
2022/01/09 07:37:30;;;;;;;15.23;3.10;;;5.70;99.90;;;;;;6204840;23;20024;-96
2022/01/09 07:39:59;;;;;;;11.52;2.33;;;5.70;99.90;;;;;;6230149;23;20016;-96
2022/01/09 07:42:27;;;;;;;8.52;1.65;;;5.70;99.90;;;;;;6205413;23;20016;-96
2022/01/09 07:44:52;;;;;;;13.52;2.28;;;5.70;99.90;;;;;;6207635;23;20343;-95
2022/01/09 07:47:18;;;;;;;11.65;2.55;;;5.70;99.90;;;;;;6203775;23;20039;-96
2022/01/09 07:52:19;;;;;;;12.13;2.20;;;5.60;99.90;;;;;;6243798;22;20024;-96
2022/01/09 07:54:45;;;;;;;12.98;2.35;;;5.60;99.90;;;;;;6283862;22;20046;-96
2022/01/09 07:57:24;;;;;;;11.82;2.40;;;5.60;99.90;;;;;;6264164;22;20026;-96
2022/01/09 07:59:50;;;;;;;9.13;2.28;;;5.60;99.90;;;;;;6262648;22;20019;-96
2022/01/09 08:02:15;;;;;;;8.65;1.90;;;5.50;99.90;;;;;;6258950;22;20019;-95
2022/01/09 08:04:41;;;;;;;9.57;2.58;;;5.50;99.90;;;;;;6253350;22;20427;-96
2022/01/09 08:07:07;;;;;;;10.93;2.05;;;5.50;99.90;;;;;;6261749;22;20015;-96
2022/01/09 08:09:35;;;;;;;9.80;2.10;;;5.50;99.90;;;;;;6281189;22;20098;-96
2022/01/09 08:12:21;;;;;;;12.02;2.42;;;5.50;99.90;;;;;;6260863;22;20015;-96
2022/01/09 08:14:47;;;;;;;10.52;2.15;;;5.60;99.90;;;;;;6239134;22;20444;-96
2022/01/09 08:17:13;;;;;;;11.10;2.30;;;5.50;99.90;;;;;;6262164;22;20026;-95
2022/01/09 08:19:39;;;;;;;11.20;2.22;;;5.50;99.90;;;;;;6272079;22;20046;-96
2022/01/09 08:27:53;;;;;;;9.07;2.22;;;5.50;99.90;;;;;;6317351;22;20058;-96
2022/01/09 08:30:19;;;;;;;14.75;3.20;;;5.60;99.90;;;;;;6271622;22;20408;-96
2022/01/09 08:32:46;;;;;;;10.55;2.78;;;5.50;99.90;;;;;;6265193;22;20006;-96
2022/01/09 08:35:12;;;;;;;9.82;1.85;;;5.50;99.90;;;;;;6269895;22;20019;-96
2022/01/09 08:37:44;;;;;;;10.32;2.10;;;5.60;99.90;;;;;;6297256;22;20010;-96
2022/01/09 08:40:17;;;;;;;8.60;2.00;;;5.60;99.90;;;;;;6271642;22;20010;-96
2022/01/09 08:54:12;;;;;;;9.05;2.33;;;5.70;99.90;;;;;;6278581;22;20461;-96
2022/01/09 09:01:48;;;;;;;11.52;2.35;;;5.70;99.90;;;;;;6281723;22;20027;-96
2022/01/09 09:04:15;;;;;;;9.75;2.45;;;5.70;99.90;;;;;;6225183;22;20085;-96
2022/01/09 09:06:41;;;;;;;11.02;2.45;;;5.70;99.90;;;;;;6227152;22;20011;-96
2022/01/09 09:09:08;;;;;;;9.25;2.00;;;5.70;99.90;;;;;;6224969;22;20024;-96
2022/01/09 09:11:34;;;;;;;10.98;2.05;;;5.80;99.90;;;;;;6223917;22;20008;-94
2022/01/09 09:14:04;;;;;;;12.95;2.45;;;5.80;99.90;;;;;;6222686;22;20451;-93
2022/01/09 09:16:31;;;;;;;12.15;2.30;;;5.80;99.90;;;;;;6223654;22;20449;-96
2022/01/09 09:18:56;;;;;;;9.85;1.90;;;5.80;99.90;;;;;;6233366;22;20007;-95
2022/01/09 09:21:22;;;;;;;13.82;2.58;;;5.80;99.90;;;;;;6246794;22;20019;-94
2022/01/09 09:23:48;;;;;;;11.18;2.42;;;5.80;99.90;;;;;;6257291;22;20022;-95
2022/01/09 09:26:15;;;;;;;9.77;2.38;;;5.80;99.90;;;;;;6249511;22;20016;-95
2022/01/09 09:28:47;;;;;;;10.90;2.25;;;5.80;99.90;;;;;;6240470;22;20020;-96
2022/01/09 09:31:13;;;;;;;11.93;2.38;;;5.70;99.90;;;;;;6234155;22;20093;-94
2022/01/09 09:33:39;;;;;;;13.27;2.67;;;5.80;99.90;;;;;;6222570;22;20016;-94
2022/01/09 09:36:05;;;;;;;11.02;2.45;;;5.80;99.90;;;;;;6222627;22;20016;-95
2022/01/09 09:38:31;;;;;;;11.77;2.55;;;5.80;99.90;;;;;;6224105;22;20069;-96
2022/01/09 09:40:57;;;;;;;9.65;2.28;;;5.90;99.90;;;;;;6221311;22;20157;-93
2022/01/09 09:43:29;;;;;;;12.05;2.67;;;5.90;99.90;;;;;;6220970;22;20337;-96
2022/01/09 09:45:56;;;;;;;12.25;2.70;;;5.90;99.90;;;;;;6224754;22;20026;-96
2022/01/09 09:48:27;;;;;;;10.52;2.28;;;6.00;99.90;;;;;;6226230;22;20391;-96
2022/01/09 09:50:56;;;;;;;10.98;2.45;;;6.00;99.90;;;;;;6225672;22;20011;-96
2022/01/09 09:53:22;;;;;;;13.60;2.63;;;6.00;99.90;;;;;;6229278;22;20034;-93
2022/01/09 09:55:51;;;;;;;11.75;2.50;;;6.00;99.90;;;;;;6224469;22;20020;-96
2022/01/09 09:58:23;;;;;;;11.80;3.30;;;6.10;99.90;;;;;;6227994;22;20024;-96
2022/01/09 10:00:54;;;;;;;15.30;3.17;;;6.00;99.90;;;;;;6270426;22;20365;-96
2022/01/09 10:03:31;;;;;;;14.57;2.42;;;5.90;99.90;;;;;;6255154;22;20054;-94
2022/01/09 10:05:58;;;;;;;13.20;2.25;;;6.00;99.90;;;;;;6256767;22;20015;-96
2022/01/09 10:08:40;;;;;;;10.38;2.00;;;6.10;99.90;;;;;;6255326;22;20177;-96
2022/01/09 10:11:16;;;;;;;9.75;2.45;;;6.10;99.90;;;;;;6248527;22;20038;-93
2022/01/09 10:14:12;;;;;;;13.50;2.28;;;6.00;99.90;;;;;;6252111;22;20016;-95
2022/01/09 10:16:37;;;;;;;10.50;2.20;;;6.00;99.90;;;;;;6250766;22;20051;-95
2022/01/09 10:19:04;;;;;;;7.07;2.17;;;6.00;99.90;;;;;;6256515;22;20019;-95
2022/01/09 10:21:29;;;;;;;8.35;1.70;;;6.10;99.90;;;;;;6278462;22;20012;-95
2022/01/09 10:24:07;;;;;;;8.18;1.65;;;6.10;99.90;;;;;;6253878;22;20133;-96
2022/01/09 10:26:38;;;;;;;9.10;1.80;;;6.10;99.90;;;;;;6281979;22;20049;-96
2022/01/09 10:29:08;;;;;;;9.18;1.58;;;6.20;99.90;;;;;;6254527;22;20017;-93
2022/01/09 10:31:52;;;;;;;7.78;1.90;;;6.20;99.90;;;;;;6260278;22;20019;-92
2022/01/09 10:34:18;;;;;;;11.10;2.03;;;6.20;99.90;;;;;;6257589;22;20023;-96
2022/01/09 10:36:51;;;;;;;10.02;2.60;;;6.10;99.90;;;;;;6280912;22;20069;-94
2022/01/09 10:39:30;;;;;;;9.25;1.95;;;6.10;99.90;;;;;;6249717;22;20051;-95
2022/01/09 10:41:59;;;;;;;7.72;2.28;;;6.10;99.90;;;;;;6250423;22;20344;-92
2022/01/09 10:44:37;;;;;;;8.38;1.63;;;6.10;99.90;;;;;;6250998;22;20015;-96
2022/01/09 10:47:05;;;;;;;11.15;2.70;;;6.10;99.90;;;;;;6249560;22;20016;-95
2022/01/09 10:49:39;;;;;;;7.70;1.95;;;6.20;99.90;;;;;;6249495;22;20098;-96
2022/01/09 10:52:17;;;;;;;8.23;1.60;;;6.20;99.90;;;;;;6249488;22;20019;-95
2022/01/09 10:54:46;;;;;;;9.13;2.42;;;6.20;99.90;;;;;;6250935;22;20023;-94
2022/01/09 10:57:19;;;;;;;8.77;1.75;;;6.20;99.90;;;;;;6249833;22;20012;-93
2022/01/09 10:59:46;;;;;;;7.57;1.70;;;6.20;99.90;;;;;;6163036;22;1942748;-96
2022/01/09 11:02:12;;;;;;;9.32;1.90;;;6.30;99.90;;;;;;6220623;22;20516;-95
2022/01/09 11:04:40;;;;;;;8.50;1.70;;;6.30;99.90;;;;;;6218891;22;20065;-96
2022/01/09 11:07:07;;;;;;;8.68;1.80;;;6.30;99.90;;;;;;6223835;22;20020;-95
2022/01/09 11:09:33;;;;;;;10.55;1.80;;;6.40;99.90;;;;;;6206788;22;20027;-96
2022/01/09 11:12:01;;;;;;;9.82;1.98;;;6.40;99.90;;;;;;6286839;22;20021;-93
2022/01/09 11:14:39;;;;;;;9.35;2.05;;;6.50;99.90;;;;;;6249954;22;20015;-95
2022/01/09 11:17:07;;;;;;;11.88;2.80;;;6.50;99.90;;;;;;6257164;22;20337;-95
2022/01/09 11:19:35;;;;;;;9.50;1.98;;;6.60;99.90;;;;;;6253122;22;20060;-93
2022/01/09 11:22:05;;;;;;;8.55;2.20;;;6.60;99.90;;;;;;6253028;22;20015;-94
2022/01/09 11:25:05;;;;;;;12.25;2.05;;;6.70;99.90;;;;;;6274645;22;20046;-94
2022/01/09 11:28:07;;;;;;;11.35;2.20;;;6.70;99.90;;;;;;6251724;22;20004;-96
2022/01/09 11:30:38;;;;;;;10.88;2.60;;;6.80;99.90;;;;;;6250263;22;20015;-96
2022/01/09 11:33:25;;;;;;;8.15;1.67;;;6.80;99.90;;;;;;6254076;22;20102;-95
2022/01/09 11:36:04;;;;;;;10.73;2.17;;;6.80;99.90;;;;;;6258970;22;20019;-96
2022/01/09 11:38:57;;;;;;;10.25;2.00;;;6.90;99.90;;;;;;6260189;22;20068;-93
2022/01/09 11:41:26;;;;;;;11.95;2.08;;;6.90;99.90;;;;;;6263732;22;20038;-95
2022/01/09 11:44:02;;;;;;;12.55;2.67;;;6.90;99.90;;;;;;6262635;22;20018;-96
2022/01/09 11:46:31;;;;;;;9.77;2.28;;;7.00;99.90;;;;;;6259771;22;20341;-95
2022/01/09 11:48:58;;;;;;;15.48;3.10;;;6.90;99.90;;;;;;6266648;22;20004;-96
2022/01/09 11:51:26;;;;;;;12.50;3.00;;;6.90;99.90;;;;;;6272571;22;20055;-96
2022/01/09 11:54:10;;;;;;;10.57;2.45;;;7.00;99.90;;;;;;6272656;22;20376;-96
2022/01/09 11:56:44;;;;;;;12.63;2.67;;;7.00;99.90;;;;;;6274665;22;20009;-93
2022/01/09 11:59:34;;;;;;;12.40;2.75;;;6.90;99.90;;;;;;6302512;22;20023;-94
2022/01/09 12:02:01;;;;;;;10.10;2.35;;;6.90;99.90;;;;;;6273012;22;20030;-96
2022/01/09 12:04:30;;;;;;;12.02;2.25;;;6.90;99.90;;;;;;6280367;22;20011;-95
2022/01/09 12:06:56;;;;;;;12.02;3.28;;;6.90;99.90;;;;;;6273212;22;20026;-96
2022/01/09 12:09:51;;;;;;;14.85;3.25;;;6.90;99.90;;;;;;6278561;22;20023;-95
2022/01/09 12:20:11;;;;;;;14.05;2.88;;;7.10;99.90;;;;;;6313168;22;20025;-93
2022/01/09 12:25:28;;;;;;;11.75;2.70;;;7.10;99.90;;;;;;6236157;22;20031;-96
2022/01/09 12:28:24;;;;;;;13.02;2.55;;;7.10;99.90;;;;;;6236190;22;20024;-96
2022/01/09 12:30:50;;;;;;;13.23;2.80;;;7.10;99.90;;;;;;6219701;22;20024;-96
2022/01/09 12:33:19;;;;;;;11.55;3.08;;;7.20;99.90;;;;;;6263085;22;20026;-95
2022/01/09 12:35:57;;;;;;;12.70;3.40;;;7.30;99.90;;;;;;6298258;22;20019;-96
2022/01/09 12:41:10;;;;;;;14.55;3.78;;;7.40;99.90;;;;;;6284346;22;20027;-96
2022/01/09 12:49:15;;;;;;;13.80;3.47;;;7.50;99.90;;;;;;6288560;22;20024;-96
2022/01/09 12:51:50;;;;;;;16.30;3.53;;;7.50;99.90;;;;;;6240665;22;20039;-96
2022/01/09 12:54:16;;;;;;;12.35;2.92;;;7.50;99.90;;;;;;6260695;22;20015;-96
2022/01/09 12:56:42;;;;;;;13.68;3.05;;;7.50;99.90;;;;;;6261761;22;20110;-95
2022/01/09 12:59:10;;;;;;;13.23;3.33;;;7.50;99.90;;;;;;6268837;22;20023;-96
2022/01/09 13:01:44;;;;;;;13.52;2.88;;;7.50;99.90;;;;;;6259375;22;20131;-95
2022/01/09 13:04:14;;;;;;;14.77;3.25;;;7.40;99.90;;;;;;6262689;22;20015;-96
2022/01/09 13:06:41;;;;;;;10.93;3.05;;;7.40;99.90;;;;;;6260865;22;20015;-96
2022/01/09 13:19:30;;;;;;;11.13;2.65;;;7.30;99.90;;;;;;6287004;22;20057;-96
2022/01/09 13:21:57;;;;;;;9.07;2.80;;;7.20;99.90;;;;;;6255596;22;20307;-94
2022/01/09 13:24:25;;;;;;;10.23;2.45;;;7.10;99.90;;;;;;6183013;22;20030;-96
2022/01/09 13:26:55;;;;;;;8.00;1.98;;;7.10;99.90;;;;;;6272121;22;20026;-96
2022/01/09 13:29:27;;;;;;;10.05;1.80;;;7.00;99.90;;;;;;6268821;22;20039;-96
2022/01/09 13:38:04;;;;;;;7.85;1.98;;;6.70;99.90;;;;;;6280776;22;20240;-96
2022/01/09 13:40:31;;;;;;;7.40;1.70;;;6.70;99.90;;;;;;6271762;22;20062;-96
2022/01/09 13:45:37;;;;;;;11.23;3.00;;;6.70;99.90;;;;;;6314135;22;20011;-94
2022/01/09 13:48:04;;;;;;;8.55;1.75;;;6.60;99.90;;;;;;6297318;22;20027;-96
2022/01/09 13:50:33;;;;;;;8.45;2.05;;;6.60;99.90;;;;;;6274104;22;20011;-96
2022/01/09 14:11:07;;;;;;;6.93;1.27;;;6.50;99.90;;;;;;6311149;22;20023;-96
2022/01/09 14:13:42;;;;;;;6.15;1.30;;;6.60;99.90;;;;;;6253142;22;20095;-96
2022/01/09 14:16:16;;;;;;;6.93;1.70;;;6.50;99.90;;;;;;6230655;22;20039;-96
2022/01/09 14:32:33;;;;;;;10.20;1.70;;;6.60;99.90;;;;;;6310221;22;20024;-96
2022/01/09 14:35:02;;;;;;;7.30;1.42;;;6.60;99.90;;;;;;6229242;22;20020;-96
2022/01/09 15:08:32;;;;;;;9.77;2.88;;;6.60;99.90;;;;;;6280702;22;20024;-96
2022/01/09 15:10:58;;;;;;;17.67;6.90;;;6.60;99.90;;;;;;6228138;22;20050;-96
2022/01/09 15:13:26;;;;;;;12.07;3.53;;;6.70;99.90;;;;;;6235120;22;20008;-96
2022/01/09 15:16:09;;;;;;;12.88;3.30;;;6.60;99.90;;;;;;6235956;22;20467;-96
2022/01/09 15:18:35;;;;;;;9.88;2.65;;;6.50;99.90;;;;;;6224973;22;20069;-94
2022/01/09 15:21:00;;;;;;;10.10;2.40;;;6.50;99.90;;;;;;6219755;22;20016;-95
2022/01/09 15:23:26;;;;;;;8.35;2.22;;;6.50;99.90;;;;;;6245419;22;20384;-91
2022/01/09 15:25:52;;;;;;;10.45;2.33;;;6.50;99.90;;;;;;6218387;22;20169;-94
2022/01/09 15:28:18;;;;;;;7.15;2.05;;;6.50;99.90;;;;;;6221661;22;20455;-94
2022/01/09 15:30:51;;;;;;;7.45;1.75;;;6.40;99.90;;;;;;6225240;22;20019;-96
2022/01/09 16:40:00;;;;;;;11.88;2.80;;;5.70;99.90;;;;;;6315071;22;20098;-96
2022/01/09 16:42:29;;;;;;;15.35;3.40;;;5.70;99.90;;;;;;6269787;22;20015;-96
2022/01/09 16:45:02;;;;;;;16.50;4.53;;;5.70;99.90;;;;;;6275619;22;20076;-95
2022/01/09 16:47:30;;;;;;;11.70;3.15;;;5.70;99.90;;;;;;6275288;22;20023;-95
2022/01/09 17:27:39;;;;;;;10.50;2.53;;;5.70;99.90;;;;;;6275017;22;20011;-96
2022/01/09 17:30:18;;;;;;;12.80;3.60;;;5.70;99.90;;;;;;6248995;22;20004;-96
2022/01/09 17:43:07;;;;;;;12.25;2.60;;;5.60;99.90;;;;;;6186874;22;19938;-95
2022/01/09 18:49:38;;;;;;;16.08;4.60;;;5.40;99.90;;;;;;6182130;22;20028;-96
2022/01/09 18:52:05;;;;;;;15.35;4.85;;;5.50;99.90;;;;;;6265574;22;20452;-96
2022/01/09 18:54:30;;;;;;;18.15;4.78;;;5.30;99.90;;;;;;6255299;22;20015;-96
2022/01/09 18:59:34;;;;;;;16.80;5.43;;;5.40;99.90;;;;;;6316078;22;20027;-94
2022/01/09 19:02:14;;;;;;;17.63;7.43;;;5.40;99.90;;;;;;6295883;22;20067;-96
2022/01/09 19:04:40;;;;;;;16.10;4.70;;;5.40;99.90;;;;;;6265701;22;20023;-96
2022/01/09 19:07:08;;;;;;;15.40;4.82;;;5.40;99.90;;;;;;6292508;22;20026;-96
2022/01/09 19:14:53;;;;;;;15.25;4.43;;;5.40;99.90;;;;;;6316061;22;20039;-96
2022/01/09 19:17:34;;;;;;;16.05;4.28;;;5.40;99.90;;;;;;6275276;22;20336;-96
2022/01/09 19:22:35;;;;;;;16.63;4.68;;;5.30;99.90;;;;;;6206065;22;20026;-96
2022/01/09 19:27:50;;;;;;;16.20;4.55;;;5.30;99.90;;;;;;6306002;22;20019;-96
2022/01/09 19:30:22;;;;;;;18.05;3.83;;;5.30;99.90;;;;;;6255005;22;20019;-96
2022/01/09 19:32:48;;;;;;;19.15;4.97;;;5.30;99.90;;;;;;6256971;22;20019;-96
2022/01/09 19:35:14;;;;;;;19.45;4.80;;;5.30;99.90;;;;;;6259578;22;20018;-96
2022/01/09 19:37:41;;;;;;;14.43;4.97;;;5.40;99.90;;;;;;6253165;22;20068;-96
2022/01/09 19:40:07;;;;;;;15.38;5.22;;;5.30;99.90;;;;;;6253293;22;20015;-96
2022/01/09 19:42:33;;;;;;;17.35;5.88;;;5.20;99.90;;;;;;6254292;22;20019;-96
2022/01/09 19:44:59;;;;;;;14.73;4.20;;;5.20;99.90;;;;;;6253911;22;20015;-96
2022/01/09 19:47:38;;;;;;;12.27;4.05;;;5.20;99.90;;;;;;6252714;22;20077;-96
2022/01/09 19:50:08;;;;;;;17.05;3.78;;;5.20;99.90;;;;;;6252947;22;20068;-96
2022/01/09 19:52:35;;;;;;;14.48;3.95;;;5.10;99.90;;;;;;6280309;22;20019;-96
2022/01/09 19:55:02;;;;;;;15.85;4.22;;;5.00;99.90;;;;;;6255286;22;20011;-96
2022/01/09 19:57:29;;;;;;;13.57;4.03;;;5.00;99.90;;;;;;6262905;22;20003;-95
2022/01/09 19:59:55;;;;;;;16.63;4.35;;;5.00;99.90;;;;;;6306364;22;20009;-96
2022/01/09 20:02:26;;;;;;;16.27;4.03;;;5.00;99.90;;;;;;6273602;22;20015;-96
2022/01/09 20:04:54;;;;;;;14.10;3.97;;;5.00;99.90;;;;;;6280532;22;20007;-96
2022/01/09 20:07:21;;;;;;;14.25;4.38;;;5.00;99.90;;;;;;6274815;22;20019;-96
2022/01/09 20:09:46;;;;;;;14.68;4.93;;;5.00;99.90;;;;;;6267055;22;20413;-96
2022/01/09 20:12:12;;;;;;;14.50;4.88;;;4.90;99.90;;;;;;6253992;22;20015;-96
2022/01/09 20:14:38;;;;;;;14.30;4.68;;;5.00;99.90;;;;;;6254278;22;20050;-96
2022/01/09 20:17:04;;;;;;;15.57;4.90;;;5.00;99.90;;;;;;6255228;22;20011;-96
2022/01/09 20:19:29;;;;;;;17.98;5.40;;;4.90;99.90;;;;;;6254326;22;20398;-96
2022/01/09 20:21:57;;;;;;;15.98;4.72;;;4.90;99.90;;;;;;6255427;22;19999;-96
2022/01/09 20:24:25;;;;;;;14.15;5.20;;;5.00;99.90;;;;;;6253993;22;20051;-96
2022/01/09 20:26:52;;;;;;;14.63;4.93;;;4.90;99.90;;;;;;6253524;22;20091;-95
2022/01/09 20:29:18;;;;;;;15.85;5.32;;;4.90;99.90;;;;;;6255221;22;20026;-96
2022/01/09 20:31:45;;;;;;;15.82;5.00;;;5.00;99.90;;;;;;6277837;22;20015;-96
2022/01/09 20:34:14;;;;;;;17.75;5.25;;;5.10;99.90;;;;;;6252938;22;20019;-96
2022/01/09 20:36:40;;;;;;;17.55;5.25;;;5.10;99.90;;;;;;6258835;22;20019;-96
2022/01/09 20:39:06;;;;;;;16.67;5.07;;;5.00;99.90;;;;;;6281276;22;20019;-96